Weather at Veles Airfield

Public forecast

Using degrees Celsius for public forecast. Weather courtesy of forecast.io.

Closest aviation weather report (METAR) to Veles Airfield

Closest report is Skopje International Airport, 15.5 nm (28.7 km) NW.

2024/06/19 16:20 (retrieved 26 minutes ago)

LWSK 191620Z 01008KT CAVOK 37/14 Q1015 NOSIG

Closest aviation forecast (TAF) to Veles Airfield

Closest forecast is Skopje International Airport, 15.5 nm (28.7 km) NW.

2024/06/19 15:19 (retrieved 1 hour ago)

TAF LWSK 191415Z 1915/2015 VRB02KT CAVOK TEMPO 1915/1920 02010KT BECMG 2009/2011 36010KT